Observation data for Guthrie on 03/24/2019      Previous  Date  Next       Current Mesonet Observations  Soil Data  Daily Summary Page  Observations in Plain Language
KPFS 240500Z 21005KT 13/M01 A2996 RMK A01 T01291012  RH  038%=      5-min Rain = 0
KPFS 240505Z 21005KT 13/M01 A2996 RMK A01 T01261012  RH  039%=      5-min Rain = 0
KPFS 240510Z 20006KT 13/M01 A2996 RMK A01 T01271012  RH  039%=      5-min Rain = 0
KPFS 240515Z 20007KT 13/M01 A2996 RMK A01 T01261012  RH  039%=      5-min Rain = 0
KPFS 240520Z 20008KT 13/M01 A2996 RMK A01 T01281012  RH  038%=      5-min Rain = 0
KPFS 240525Z 20008KT 13/M01 A2995 RMK A01 T01281012  RH  038%=      5-min Rain = 0
KPFS 240530Z 20008KT 13/M01 A2995 RMK A01 T01291012  RH  038%=      5-min Rain = 0
KPFS 240535Z 20008KT 13/M01 A2995 RMK A01 T01281012  RH  038%=      5-min Rain = 0
KPFS 240540Z 20009KT 13/M01 A2995 RMK A01 T01281012  RH  038%=      5-min Rain = 0
KPFS 240545Z 20009KT 13/M01 A2995 RMK A01 T01301011  RH  038%=      5-min Rain = 0
KPFS 240550Z 20009KT 13/M01 A2995 RMK A01 T01321011  RH  038%=      5-min Rain = 0
KPFS 240555Z 21008KT 13/M01 A2995 RMK A01 T01331011  RH  037%=      5-min Rain = 0
KPFS 240600Z 21007KT 13/M01 A2995 RMK A01 T01291010  RH  039%=      5-min Rain = 0
KPFS 240605Z 21007KT 13/M01 A2995 RMK A01 T01281009  RH  039%=      5-min Rain = 0
KPFS 240610Z 21006KT 13/M01 A2995 RMK A01 T01281009  RH  039%=      5-min Rain = 0
KPFS 240615Z 21005KT 12/M01 A2995 RMK A01 T01231009  RH  040%=      5-min Rain = 0
KPFS 240620Z 21005KT 12/M01 A2995 RMK A01 T01221008  RH  041%=      5-min Rain = 0
KPFS 240625Z 21005KT 12/M01 A2995 RMK A01 T01231008  RH  041%=      5-min Rain = 0
KPFS 240630Z 21005KT 12/M01 A2995 RMK A01 T01241009  RH  040%=      5-min Rain = 0
KPFS 240635Z 21005KT 12/M01 A2995 RMK A01 T01241009  RH  040%=      5-min Rain = 0
KPFS 240640Z 21004KT 12/M01 A2995 RMK A01 T01231008  RH  041%=      5-min Rain = 0
KPFS 240645Z 21004KT 12/M01 A2995 RMK A01 T01211008  RH  041%=      5-min Rain = 0
KPFS 240650Z 22004KT 12/M01 A2995 RMK A01 T01211008  RH  041%=      5-min Rain = 0
KPFS 240655Z 23003KT 12/M01 A2995 RMK A01 T01201008  RH  041%=      5-min Rain = 0
KPFS 240700Z 24003KT 12/M01 A2995 RMK A01 T01191008  RH  042%=      5-min Rain = 0
KPFS 240705Z 23003KT 12/M01 A2995 RMK A01 T01191008  RH  042%=      5-min Rain = 0
KPFS 240710Z 22003KT 12/M01 A2995 RMK A01 T01201007  RH  042%=      5-min Rain = 0
KPFS 240715Z 23003KT 12/M01 A2995 RMK A01 T01191007  RH  042%=      5-min Rain = 0
KPFS 240720Z 23003KT 12/M01 A2995 RMK A01 T01171007  RH  043%=      5-min Rain = 0
KPFS 240725Z 23003KT 12/M01 A2995 RMK A01 T01181005  RH  043%=      5-min Rain = 0
KPFS 240730Z 26001KT 12/M01 A2995 RMK A01 T01211005  RH  042%=      5-min Rain = 0
KPFS 240735Z 25002KT 12/M01 A2995 RMK A01 T01201005  RH  043%=      5-min Rain = 0
KPFS 240740Z 25003KT 12/M00 A2995 RMK A01 T01201004  RH  043%=      5-min Rain = 0
KPFS 240745Z 24003KT 12/M00 A2995 RMK A01 T01201004  RH  043%=      5-min Rain = 0
KPFS 240750Z 22002KT 12/M00 A2995 RMK A01 T01191004  RH  043%=      5-min Rain = 0
KPFS 240755Z 22002KT 12/M00 A2995 RMK A01 T01181004  RH  044%=      5-min Rain = 0
KPFS 240800Z 23003KT 12/M00 A2995 RMK A01 T01171004  RH  044%=      5-min Rain = 0
KPFS 240805Z 23003KT 12/M00 A2995 RMK A01 T01151004  RH  044%=      5-min Rain = 0
KPFS 240810Z 24003KT 11/M00 A2995 RMK A01 T01141004  RH  044%=      5-min Rain = 0
KPFS 240815Z 26003KT 12/M00 A2995 RMK A01 T01151004  RH  044%=      5-min Rain = 0
KPFS 240820Z 26004KT 12/M01 A2995 RMK A01 T01181005  RH  043%=      5-min Rain = 0
KPFS 240825Z 25005KT 12/M01 A2995 RMK A01 T01231005  RH  042%=      5-min Rain = 0
KPFS 240830Z 23004KT 12/M01 A2995 RMK A01 T01241006  RH  041%=      5-min Rain = 0
KPFS 240835Z 22005KT 12/M01 A2994 RMK A01 T01181005  RH  043%=      5-min Rain = 0
KPFS 240840Z 22005KT 12/M01 A2995 RMK A01 T01151005  RH  044%=      5-min Rain = 0
KPFS 240845Z 23006KT 11/M00 A2995 RMK A01 T01081004  RH  046%=      5-min Rain = 0
KPFS 240850Z 23005KT 10/M00 A2995 RMK A01 T00991003  RH  050%=      5-min Rain = 0
KPFS 240855Z 23005KT 10/M00 A2995 RMK A01 T00951002  RH  051%=      5-min Rain = 0
KPFS 240900Z 23007KT 10/M00 A2995 RMK A01 T01021002  RH  049%=      5-min Rain = 0
KPFS 240905Z 23008KT 10/M00 A2995 RMK A01 T01011003  RH  049%=      5-min Rain = 0
KPFS 240910Z 23008G13KT 10/M00 A2995 RMK A01 T01031003  RH  048%=      5-min Rain = 0
KPFS 240915Z 23007KT 10/M00 A2995 RMK A01 T01031003  RH  048%=      5-min Rain = 0
KPFS 240920Z 23008KT 10/M00 A2995 RMK A01 T01031003  RH  048%=      5-min Rain = 0
KPFS 240925Z 22008KT 11/M00 A2994 RMK A01 T01081003  RH  047%=      5-min Rain = 0
KPFS 240930Z 22007KT 11/M00 A2995 RMK A01 T01081003  RH  046%=      5-min Rain = 0
KPFS 240935Z 22007KT 11/M00 A2994 RMK A01 T01051003  RH  047%=      5-min Rain = 0
KPFS 240940Z 22008KT 10/M00 A2994 RMK A01 T01041003  RH  048%=      5-min Rain = 0
KPFS 240945Z 22008KT 10/M00 A2994 RMK A01 T01041002  RH  048%=      5-min Rain = 0
KPFS 240950Z 22008KT 10/M00 A2994 RMK A01 T01041001  RH  049%=      5-min Rain = 0
KPFS 240955Z 22008KT 11/M00 A2994 RMK A01 T01051001  RH  048%=      5-min Rain = 0
KPFS 241000Z 22008KT 10/M00 A2994 RMK A01 T01031001  RH  049%=      5-min Rain = 0
KPFS 241005Z 22008KT 10/M00 A2994 RMK A01 T01041001  RH  049%=      5-min Rain = 0
KPFS 241010Z 22009KT 11/00 A2994 RMK A01 T010600-0  RH  048%=      5-min Rain = 0
KPFS 241015Z 22009KT 11/00 A2994 RMK A01 T01070000  RH  048%=      5-min Rain = 0
KPFS 241020Z 22006KT 11/00 A2995 RMK A01 T01070001  RH  049%=      5-min Rain = 0
KPFS 241025Z 24005KT 10/M00 A2995 RMK A01 T01011001  RH  050%=      5-min Rain = 0
KPFS 241030Z 24004KT 10/M00 A2995 RMK A01 T00981001  RH  050%=      5-min Rain = 0
KPFS 241035Z 24005KT 10/00 A2995 RMK A01 T01030001  RH  050%=      5-min Rain = 0
KPFS 241040Z 23008KT 11/00 A2995 RMK A01 T01050003  RH  050%=      5-min Rain = 0
KPFS 241045Z 22009KT 11/00 A2995 RMK A01 T01060004  RH  050%=      5-min Rain = 0
KPFS 241050Z 22008KT 11/01 A2995 RMK A01 T01060005  RH  050%=      5-min Rain = 0
KPFS 241055Z 22008KT 11/00 A2995 RMK A01 T01070004  RH  050%=      5-min Rain = 0
KPFS 241100Z 22009KT 11/00 A2995 RMK A01 T01060000  RH  049%=      5-min Rain = 0
KPFS 241105Z 22009KT 10/M00 A2996 RMK A01 T01021002  RH  049%=      5-min Rain = 0
KPFS 241110Z 23010G15KT 10/M00 A2996 RMK A01 T01001004  RH  049%=      5-min Rain = 0
KPFS 241115Z 23012KT 11/M01 A2996 RMK A01 T01051007  RH  046%=      5-min Rain = 0
KPFS 241120Z 24011KT 11/M01 A2996 RMK A01 T01091010  RH  044%=      5-min Rain = 0
KPFS 241125Z 26007G13KT 11/M01 A2997 RMK A01 T01081010  RH  044%=      5-min Rain = 0
KPFS 241130Z 31003KT 11/M01 A2997 RMK A01 T01051012  RH  045%=      5-min Rain = 0
KPFS 241135Z 30003KT 10/M01 A2997 RMK A01 T01031014  RH  045%=      5-min Rain = 0
KPFS 241140Z 29003KT 10/M02 A2997 RMK A01 T01011016  RH  044%=      5-min Rain = 0
KPFS 241145Z 26005KT 10/M02 A2997 RMK A01 T01031017  RH  043%=      5-min Rain = 0
KPFS 241150Z 25006KT 10/M02 A2997 RMK A01 T01041017  RH  043%=      5-min Rain = 0
KPFS 241155Z 24005KT 10/M02 A2997 RMK A01 T01031018  RH  043%=      5-min Rain = 0
KPFS 241200Z 24007KT 10/M02 A2997 RMK A01 T01031019  RH  043%=      5-min Rain = 0
KPFS 241205Z 23006KT 10/M02 A2997 RMK A01 T01021019  RH  043%=      5-min Rain = 0
KPFS 241210Z 29005KT 10/M02 A2998 RMK A01 T01001020  RH  043%=      5-min Rain = 0
KPFS 241215Z 29008KT 10/M02 A2998 RMK A01 T01021020  RH  043%=      5-min Rain = 0
KPFS 241220Z 26008KT 11/M03 A2998 RMK A01 T01141025  RH  038%=      5-min Rain = 0
KPFS 241225Z 26006KT 12/M03 A2998 RMK A01 T01161027  RH  037%=      5-min Rain = 0
KPFS 241230Z 30004KT 11/M03 A2998 RMK A01 T01131027  RH  038%=      5-min Rain = 0
KPFS 241235Z 28004KT 11/M03 A2999 RMK A01 T01131028  RH  037%=      5-min Rain = 0
KPFS 241240Z 33006KT 11/M02 A2999 RMK A01 T01051024  RH  041%=      5-min Rain = 0
KPFS 241245Z 30006KT 09/M02 A2999 RMK A01 T00941021  RH  045%=      5-min Rain = 0
KPFS 241250Z 29005KT 10/M02 A2999 RMK A01 T00961022  RH  044%=      5-min Rain = 0
KPFS 241255Z 31004KT 10/M02 A2999 RMK A01 T00971022  RH  044%=      5-min Rain = 0
KPFS 241300Z 32004KT 10/M02 A30 RMK A01 T00961023  RH  044%=      5-min Rain = 0
KPFS 241305Z 31004KT 10/M02 A30 RMK A01 T00981023  RH  043%=      5-min Rain = 0
KPFS 241310Z 31003KT 10/M02 A3001 RMK A01 T01021024  RH  042%=      5-min Rain = 0
KPFS 241315Z 30002KT 11/M03 A3001 RMK A01 T01051025  RH  040%=      5-min Rain = 0
KPFS 241320Z 26002KT 11/M03 A3001 RMK A01 T01091025  RH  039%=      5-min Rain = 0
KPFS 241325Z 15002KT 11/M02 A3002 RMK A01 T01111018  RH  041%=      5-min Rain = 0
KPFS 241330Z 11002KT 11/M01 A3002 RMK A01 T01081011  RH  044%=      5-min Rain = 0
KPFS 241335Z 01003KT 11/M02 A3003 RMK A01 T01131016  RH  041%=      5-min Rain = 0
KPFS 241340Z 02004KT 12/M02 A3003 RMK A01 T01201018  RH  039%=      5-min Rain = 0
KPFS 241345Z 01003KT 12/M01 A3004 RMK A01 T01211014  RH  039%=      5-min Rain = 0
KPFS 241350Z 00005KT 12/M01 A3004 RMK A01 T01191012  RH  041%=      5-min Rain = 0
KPFS 241355Z 00006KT 12/M01 A3004 RMK A01 T01191006  RH  042%=      5-min Rain = 0
KPFS 241400Z 35006KT 12/M00 A3004 RMK A01 T01201003  RH  043%=      5-min Rain = 0
KPFS 241405Z 35007KT 12/00 A3004 RMK A01 T01210001  RH  044%=      5-min Rain = 0
KPFS 241410Z 34009G15KT 12/01 A3004 RMK A01 T01210011  RH  048%=      5-min Rain = 0
KPFS 241415Z 35010KT 12/02 A3004 RMK A01 T01210021  RH  051%=      5-min Rain = 0
KPFS 241420Z 35013KT 12/03 A3004 RMK A01 T01210025  RH  053%=      5-min Rain = 0
KPFS 241425Z 35010G15KT 12/03 A3004 RMK A01 T01210029  RH  054%=      5-min Rain = 0
KPFS 241430Z 35012KT 12/03 A3005 RMK A01 T01210031  RH  055%=      5-min Rain = 0
KPFS 241435Z 35012KT 12/03 A3005 RMK A01 T01220033  RH  055%=      5-min Rain = 0
KPFS 241440Z 35013KT 12/03 A3005 RMK A01 T01230034  RH  055%=      5-min Rain = 0
KPFS 241445Z 35012KT 12/04 A3005 RMK A01 T01240036  RH  056%=      5-min Rain = 0
KPFS 241450Z 34011KT 13/04 A3006 RMK A01 T01260037  RH  056%=      5-min Rain = 0
KPFS 241455Z 35012KT 13/04 A3006 RMK A01 T01290038  RH  055%=      5-min Rain = 0
KPFS 241500Z 35011KT 13/04 A3006 RMK A01 T01300039  RH  055%=      5-min Rain = 0
KPFS 241505Z 35010KT 13/04 A3006 RMK A01 T01290039  RH  055%=      5-min Rain = 0
KPFS 241510Z 35010G15KT 13/04 A3006 RMK A01 T01320040  RH  055%=      5-min Rain = 0
KPFS 241515Z 35010KT 13/04 A3007 RMK A01 T01330040  RH  054%=      5-min Rain = 0
KPFS 241520Z 00009KT 13/04 A3007 RMK A01 T01340041  RH  054%=      5-min Rain = 0
KPFS 241525Z 35008G14KT 14/04 A3007 RMK A01 T01370043  RH  054%=      5-min Rain = 0
KPFS 241530Z 36009KT 14/04 A3007 RMK A01 T01410044  RH  053%=      5-min Rain = 0
KPFS 241535Z 36009KT 14/04 A3007 RMK A01 T01400044  RH  053%=      5-min Rain = 0
KPFS 241540Z 35009KT 14/05 A3007 RMK A01 T01440046  RH  053%=      5-min Rain = 0
KPFS 241545Z 36010KT 14/04 A3007 RMK A01 T01420044  RH  053%=      5-min Rain = 0
KPFS 241550Z 00009KT 15/05 A3007 RMK A01 T01450046  RH  052%=      5-min Rain = 0
KPFS 241555Z 36010G15KT 15/05 A3007 RMK A01 T01450045  RH  052%=      5-min Rain = 0
KPFS 241600Z 36008KT 15/05 A3007 RMK A01 T01490047  RH  051%=      5-min Rain = 0
KPFS 241605Z 35008KT 15/05 A3007 RMK A01 T01530048  RH  051%=      5-min Rain = 0
KPFS 241610Z 35009KT 15/05 A3007 RMK A01 T01510047  RH  051%=      5-min Rain = 0
KPFS 241615Z 35007KT 16/05 A3007 RMK A01 T01550049  RH  050%=      5-min Rain = 0
KPFS 241620Z 35008KT 15/05 A3007 RMK A01 T01540048  RH  050%=      5-min Rain = 0
KPFS 241625Z 35008KT 16/05 A3007 RMK A01 T01550050  RH  051%=      5-min Rain = 0
KPFS 241630Z 36009KT 16/05 A3008 RMK A01 T01590049  RH  049%=      5-min Rain = 0
KPFS 241635Z 34008KT 16/05 A3007 RMK A01 T01600051  RH  049%=      5-min Rain = 0
KPFS 241640Z 34008KT 17/05 A3007 RMK A01 T01650053  RH  048%=      5-min Rain = 0
KPFS 241645Z 01010KT 17/05 A3007 RMK A01 T01690051  RH  047%=      5-min Rain = 0
KPFS 241650Z 00009KT 17/05 A3007 RMK A01 T01680052  RH  047%=      5-min Rain = 0
KPFS 241655Z 00009KT 17/05 A3007 RMK A01 T01680051  RH  047%=      5-min Rain = 0
KPFS 241700Z 01008KT 17/05 A3007 RMK A01 T01690051  RH  047%=      5-min Rain = 0
KPFS 241705Z 36009KT 17/05 A3007 RMK A01 T01700052  RH  047%=      5-min Rain = 0
KPFS 241710Z 00008KT 17/05 A3007 RMK A01 T01680051  RH  047%=      5-min Rain = 0
KPFS 241715Z 36008KT 17/05 A3007 RMK A01 T01700052  RH  047%=      5-min Rain = 0
KPFS 241720Z 00007KT 18/05 A3007 RMK A01 T01750052  RH  045%=      5-min Rain = 0
KPFS 241725Z 36008KT 18/05 A3007 RMK A01 T01770051  RH  044%=      5-min Rain = 0
KPFS 241730Z 34007KT 17/05 A3007 RMK A01 T01720050  RH  045%=      5-min Rain = 0
KPFS 241735Z 36006KT 17/05 A3007 RMK A01 T01730050  RH  045%=      5-min Rain = 0
KPFS 241740Z 35005KT 18/05 A3007 RMK A01 T01750052  RH  045%=      5-min Rain = 0
KPFS 241745Z 35007KT 18/06 A3006 RMK A01 T01820056  RH  044%=      5-min Rain = 0
KPFS 241750Z 02007KT 18/05 A3006 RMK A01 T01830051  RH  043%=      5-min Rain = 0
KPFS 241755Z 01006KT 18/05 A3006 RMK A01 T01830051  RH  043%=      5-min Rain = 0
KPFS 241800Z 01005KT 19/05 A3006 RMK A01 T01850054  RH  043%=      5-min Rain = 0
KPFS 241805Z 04006KT 19/06 A3005 RMK A01 T01890055  RH  042%=      5-min Rain = 0
KPFS 241810Z 03006G12KT 19/06 A3005 RMK A01 T01930057  RH  042%=      5-min Rain = 0
KPFS 241815Z 34008KT 19/05 A3006 RMK A01 T01900054  RH  042%=      5-min Rain = 0
KPFS 241820Z 35005KT 19/05 A3006 RMK A01 T01890053  RH  041%=      5-min Rain = 0
KPFS 241825Z 33005KT 19/05 A3006 RMK A01 T01880052  RH  042%=      5-min Rain = 0
KPFS 241830Z 35007KT 19/05 A3006 RMK A01 T01920054  RH  041%=      5-min Rain = 0
KPFS 241835Z 03006KT 19/05 A3006 RMK A01 T01920053  RH  041%=      5-min Rain = 0
KPFS 241840Z 35004KT 20/06 A3005 RMK A01 T01980056  RH  040%=      5-min Rain = 0
KPFS 241845Z 02006KT 20/06 A3005 RMK A01 T01990056  RH  040%=      5-min Rain = 0
KPFS 241850Z 02005KT 20/05 A3005 RMK A01 T01980054  RH  040%=      5-min Rain = 0
KPFS 241855Z 34005KT 20/06 A3005 RMK A01 T01990055  RH  040%=      5-min Rain = 0
KPFS 241900Z 34005KT 20/05 A3005 RMK A01 T01990053  RH  039%=      5-min Rain = 0
KPFS 241905Z 02002KT 20/05 A3005 RMK A01 T01990048  RH  038%=      5-min Rain = 0
KPFS 241910Z 35002KT 20/05 A3004 RMK A01 T02010049  RH  038%=      5-min Rain = 0
KPFS 241915Z 35005KT 20/05 A3004 RMK A01 T01990050  RH  038%=      5-min Rain = 0
KPFS 241920Z 31002KT 20/05 A3004 RMK A01 T01980052  RH  039%=      5-min Rain = 0
KPFS 241925Z 35004KT 21/05 A3004 RMK A01 T02050050  RH  037%=      5-min Rain = 0
KPFS 241930Z 34005KT 20/05 A3004 RMK A01 T02040048  RH  037%=      5-min Rain = 0
KPFS 241935Z 34004KT 20/05 A3004 RMK A01 T02020045  RH  036%=      5-min Rain = 0
KPFS 241940Z 31001KT 21/05 A3004 RMK A01 T02110052  RH  036%=      5-min Rain = 0
KPFS 241945Z 27004KT 22/05 A3004 RMK A01 T02150054  RH  036%=      5-min Rain = 0
KPFS 241950Z 28003KT 21/06 A3004 RMK A01 T02140055  RH  036%=      5-min Rain = 0
KPFS 241955Z 29004KT 21/05 A3003 RMK A01 T02140052  RH  035%=      5-min Rain = 0
KPFS 242000Z 35004KT 21/05 A3003 RMK A01 T02120052  RH  036%=      5-min Rain = 0
KPFS 242005Z 33005KT 21/05 A3003 RMK A01 T02110053  RH  036%=      5-min Rain = 0
KPFS 242010Z 35004KT 22/06 A3003 RMK A01 T02200055  RH  035%=      5-min Rain = 0
KPFS 242015Z 02003KT 22/05 A3002 RMK A01 T02150051  RH  035%=      5-min Rain = 0
KPFS 242020Z 05004KT 22/05 A3002 RMK A01 T02160054  RH  035%=      5-min Rain = 0
KPFS 242025Z 02004KT 21/05 A3002 RMK A01 T02130051  RH  035%=      5-min Rain = 0
KPFS 242030Z 34003KT 22/05 A3002 RMK A01 T02160051  RH  035%=      5-min Rain = 0
KPFS 242035Z 01003KT 21/05 A3002 RMK A01 T02130052  RH  036%=      5-min Rain = 0
KPFS 242040Z 34003KT 22/05 A3002 RMK A01 T02160054  RH  036%=      5-min Rain = 0
KPFS 242045Z 35004KT 22/05 A3002 RMK A01 T02210054  RH  034%=      5-min Rain = 0
KPFS 242050Z 01004KT 22/05 A3002 RMK A01 T02200052  RH  034%=      5-min Rain = 0
KPFS 242055Z 03003KT 22/05 A3002 RMK A01 T02210052  RH  034%=      5-min Rain = 0
KPFS 242100Z 04002KT 22/05 A3002 RMK A01 T02190053  RH  035%=      5-min Rain = 0
KPFS 242105Z 00003KT 22/05 A3001 RMK A01 T02220053  RH  034%=      5-min Rain = 0
KPFS 242110Z 33002KT 22/05 A3001 RMK A01 T02200052  RH  034%=      5-min Rain = 0
KPFS 242115Z 33004KT 22/05 A3001 RMK A01 T02210052  RH  034%=      5-min Rain = 0
KPFS 242120Z 36005KT 22/05 A3001 RMK A01 T02220052  RH  034%=      5-min Rain = 0
KPFS 242125Z 35004KT 23/05 A3001 RMK A01 T02250050  RH  033%=      5-min Rain = 0
KPFS 242130Z 35006KT 22/05 A3001 RMK A01 T02230051  RH  033%=      5-min Rain = 0
KPFS 242135Z 03004KT 23/05 A3001 RMK A01 T02260053  RH  033%=      5-min Rain = 0
KPFS 242140Z 00005KT 23/05 A3001 RMK A01 T02260051  RH  033%=      5-min Rain = 0
KPFS 242145Z 35006KT 23/05 A3001 RMK A01 T02280053  RH  033%=      5-min Rain = 0
KPFS 242150Z 35007KT 23/06 A3001 RMK A01 T02300057  RH  033%=      5-min Rain = 0
KPFS 242155Z 35007G12KT 23/05 A30 RMK A01 T02260052  RH  033%=      5-min Rain = 0
KPFS 242200Z 02005G10KT 22/05 A30 RMK A01 T02230054  RH  034%=      5-min Rain = 0
KPFS 242205Z 01006KT 23/06 A30 RMK A01 T02290056  RH  033%=      5-min Rain = 0
KPFS 242210Z 01007KT 23/05 A30 RMK A01 T02320054  RH  032%=      5-min Rain = 0
KPFS 242215Z 00006KT 23/05 A30 RMK A01 T02290050  RH  032%=      5-min Rain = 0
KPFS 242220Z 35005KT 23/05 A30 RMK A01 T02280050  RH  032%=      5-min Rain = 0
KPFS 242225Z 36007KT 23/05 A30 RMK A01 T02310052  RH  032%=      5-min Rain = 0
KPFS 242230Z 02005KT 23/05 A30 RMK A01 T02320051  RH  032%=      5-min Rain = 0
KPFS 242235Z 03006KT 23/05 A30 RMK A01 T02300050  RH  032%=      5-min Rain = 0
KPFS 242240Z 05007KT 23/05 A30 RMK A01 T02300049  RH  032%=      5-min Rain = 0
KPFS 242245Z 03005KT 23/05 A30 RMK A01 T02320051  RH  032%=      5-min Rain = 0
KPFS 242250Z 36007KT 23/05 A30 RMK A01 T02300049  RH  031%=      5-min Rain = 0
KPFS 242255Z 00005KT 23/05 A30 RMK A01 T02300048  RH  031%=      5-min Rain = 0
KPFS 242300Z 02007KT 23/05 A30 RMK A01 T02300050  RH  032%=      5-min Rain = 0
KPFS 242305Z 00007KT 23/05 A30 RMK A01 T02330054  RH  032%=      5-min Rain = 0
KPFS 242310Z 35008KT 23/05 A3001 RMK A01 T02270048  RH  032%=      5-min Rain = 0
KPFS 242315Z 35006KT 23/05 A3001 RMK A01 T02280048  RH  032%=      5-min Rain = 0
KPFS 242320Z 02006KT 23/05 A3001 RMK A01 T02300050  RH  032%=      5-min Rain = 0
KPFS 242325Z 02007KT 23/05 A3001 RMK A01 T02300051  RH  032%=      5-min Rain = 0
KPFS 242330Z 01008KT 23/05 A3001 RMK A01 T02270049  RH  032%=      5-min Rain = 0
KPFS 242335Z 02007KT 23/05 A3001 RMK A01 T02270048  RH  032%=      5-min Rain = 0
KPFS 242340Z 02006KT 23/05 A3001 RMK A01 T02280050  RH  032%=      5-min Rain = 0
KPFS 242345Z 02007KT 23/05 A3001 RMK A01 T02310051  RH  032%=      5-min Rain = 0
KPFS 242350Z 02007KT 23/05 A3001 RMK A01 T02270046  RH  031%=      5-min Rain = 0
KPFS 242355Z 03007KT 23/05 A3001 RMK A01 T02260047  RH  032%=      5-min Rain = 0
KPFS 250000Z 03007KT 23/05 A30 RMK A01 T02250047  RH  032%=      5-min Rain = 0
KPFS 250005Z 02006KT 22/05 A3001 RMK A01 T02230045  RH  032%=      5-min Rain = 0
KPFS 250010Z 03007KT 22/05 A3001 RMK A01 T02220046  RH  032%=      5-min Rain = 0
KPFS 250015Z 04006KT 22/05 A30 RMK A01 T02200050  RH  034%=      5-min Rain = 0
KPFS 250020Z 05007KT 22/05 A30 RMK A01 T02170047  RH  034%=      5-min Rain = 0
KPFS 250025Z 06006KT 21/05 A30 RMK A01 T02140048  RH  035%=      5-min Rain = 0
KPFS 250030Z 06006KT 21/05 A30 RMK A01 T02110047  RH  035%=      5-min Rain = 0
KPFS 250035Z 06006KT 21/05 A30 RMK A01 T02080048  RH  036%=      5-min Rain = 0
KPFS 250040Z 06006KT 20/05 A30 RMK A01 T02040048  RH  037%=      5-min Rain = 0
KPFS 250045Z 06006KT 20/05 A30 RMK A01 T01990049  RH  038%=      5-min Rain = 0
KPFS 250050Z 05005KT 20/05 A30 RMK A01 T01950049  RH  039%=      5-min Rain = 0
KPFS 250055Z 05005KT 19/05 A30 RMK A01 T01900049  RH  040%=      5-min Rain = 0
KPFS 250100Z 05006KT 19/05 A30 RMK A01 T01850048  RH  041%=      5-min Rain = 0
KPFS 250105Z 05006KT 18/05 A30 RMK A01 T01810047  RH  042%=      5-min Rain = 0
KPFS 250110Z 05007KT 18/05 A30 RMK A01 T01780047  RH  043%=      5-min Rain = 0
KPFS 250115Z 04007KT 18/05 A3001 RMK A01 T01750048  RH  044%=      5-min Rain = 0
KPFS 250120Z 04007KT 17/05 A3001 RMK A01 T01720048  RH  045%=      5-min Rain = 0
KPFS 250125Z 04007KT 17/05 A3001 RMK A01 T01670049  RH  046%=      5-min Rain = 0
KPFS 250130Z 04008KT 16/05 A3001 RMK A01 T01640050  RH  048%=      5-min Rain = 0
KPFS 250135Z 05007KT 16/05 A3001 RMK A01 T01620052  RH  049%=      5-min Rain = 0
KPFS 250140Z 05008KT 16/05 A3001 RMK A01 T01630052  RH  049%=      5-min Rain = 0
KPFS 250145Z 05008KT 17/05 A3001 RMK A01 T01650052  RH  048%=      5-min Rain = 0
KPFS 250150Z 05008KT 17/05 A3002 RMK A01 T01650052  RH  048%=      5-min Rain = 0
KPFS 250155Z 05008KT 17/05 A3002 RMK A01 T01650052  RH  048%=      5-min Rain = 0
KPFS 250200Z 05008KT 16/05 A3002 RMK A01 T01640052  RH  048%=      5-min Rain = 0
KPFS 250205Z 04007KT 16/05 A3002 RMK A01 T01620052  RH  049%=      5-min Rain = 0
KPFS 250210Z 05006KT 16/05 A3002 RMK A01 T01560052  RH  051%=      5-min Rain = 0
KPFS 250215Z 06008KT 16/05 A3002 RMK A01 T01580051  RH  050%=      5-min Rain = 0
KPFS 250220Z 06008KT 16/05 A3002 RMK A01 T01620050  RH  048%=      5-min Rain = 0
KPFS 250225Z 06008KT 16/05 A3003 RMK A01 T01630049  RH  048%=      5-min Rain = 0
KPFS 250230Z 06009KT 16/05 A3003 RMK A01 T01630049  RH  048%=      5-min Rain = 0
KPFS 250235Z 06009KT 16/05 A3003 RMK A01 T01620052  RH  049%=      5-min Rain = 0
KPFS 250240Z 06009KT 16/05 A3004 RMK A01 T01620053  RH  049%=      5-min Rain = 0
KPFS 250245Z 06008KT 16/05 A3004 RMK A01 T01590054  RH  051%=      5-min Rain = 0
KPFS 250250Z 06007KT 16/05 A3004 RMK A01 T01550054  RH  052%=      5-min Rain = 0
KPFS 250255Z 06008KT 15/06 A3004 RMK A01 T01540056  RH  053%=      5-min Rain = 0
KPFS 250300Z 06007KT 15/06 A3005 RMK A01 T01540058  RH  054%=      5-min Rain = 0
KPFS 250305Z 07008KT 15/06 A3005 RMK A01 T01520058  RH  055%=      5-min Rain = 0
KPFS 250310Z 06008KT 15/06 A3005 RMK A01 T01510059  RH  055%=      5-min Rain = 0
KPFS 250315Z 06007KT 15/06 A3005 RMK A01 T01510059  RH  056%=      5-min Rain = 0
KPFS 250320Z 06007KT 15/06 A3005 RMK A01 T01490059  RH  056%=      5-min Rain = 0
KPFS 250325Z 05006KT 15/06 A3005 RMK A01 T01450059  RH  058%=      5-min Rain = 0
KPFS 250330Z 06007KT 14/06 A3006 RMK A01 T01440059  RH  058%=      5-min Rain = 0
KPFS 250335Z 05007KT 14/06 A3006 RMK A01 T01430059  RH  058%=      5-min Rain = 0
KPFS 250340Z 05006KT 14/06 A3006 RMK A01 T01410059  RH  059%=      5-min Rain = 0
KPFS 250345Z 05006KT 14/06 A3006 RMK A01 T01390059  RH  060%=      5-min Rain = 0
KPFS 250350Z 05006KT 14/06 A3007 RMK A01 T01380058  RH  060%=      5-min Rain = 0
KPFS 250355Z 04004KT 13/06 A3007 RMK A01 T01340056  RH  061%=      5-min Rain = 0
KPFS 250400Z 34002KT 12/05 A3007 RMK A01 T01210052  RH  064%=      5-min Rain = 0
KPFS 250405Z 34002KT 11/05 A3007 RMK A01 T01130052  RH  067%=      5-min Rain = 0
KPFS 250410Z 36002KT 11/05 A3007 RMK A01 T01110052  RH  069%=      5-min Rain = 0
KPFS 250415Z 00002KT 11/05 A3008 RMK A01 T01100053  RH  070%=      5-min Rain = 0
KPFS 250420Z 03002KT 11/05 A3007 RMK A01 T01090054  RH  070%=      5-min Rain = 0
KPFS 250425Z 01002KT 11/06 A3008 RMK A01 T01100056  RH  071%=      5-min Rain = 0
KPFS 250430Z 36002KT 11/06 A3008 RMK A01 T01110056  RH  070%=      5-min Rain = 0
KPFS 250435Z 32003KT 11/06 A3008 RMK A01 T01120056  RH  070%=      5-min Rain = 0
KPFS 250440Z 32002KT 11/06 A3008 RMK A01 T01100055  RH  070%=      5-min Rain = 0
KPFS 250445Z 34002KT 11/06 A3008 RMK A01 T01090055  RH  071%=      5-min Rain = 0
KPFS 250450Z 34001KT 11/06 A3008 RMK A01 T01100056  RH  071%=      5-min Rain = 0
KPFS 250455Z 33001KT 11/06 A3008 RMK A01 T01110057  RH  071%=      5-min Rain = 0

Page generated in 0.0226 seconds.